Terminal Aerodrome Forecast
Issued by NWS Wilmington, NC

Home | Current Version | Previous Version | Text Only | Print | Product List | Glossary On
Versions: 1 2 3 4 5 6 7 8 9 10 11 12 13
000
FTUS42 KILM 202300
TAFLBT
TAF
KLBT 202320Z 2100/2124 06006KT P6SM FEW010 OVC030
     FM210500 04004KT 4SM BR FEW010 SCT030 BKN060
     FM211400 05008KT P6SM SCT025 BKN050
     FM211800 05007KT P6SM -RA BKN025 OVC050=

USA.gov is the U.S. government's official web portal to all federal, state and local government web resources and services.